Time;durP1;ratioP1;P1;durP2;ratioP2;P2;SDS_P1;SDS_P2;PMS_P1;PMS_P2;Temp;Humidity;BMP_temperature;BMP_pressure;BME280_temperature;BME280_humidity;BME280_pressure;Samples;Min_cycle;Max_cycle;Signal;HPM_P1;HPM_P2
2022/09/18 00:02:13;;;;;;;24.52;12.15;;;;;;;24.38;75.64;98617.11;1792376;80;21804;-78
2022/09/18 00:05:18;;;;;;;24.02;12.80;;;;;;;24.45;75.38;98620.88;1792221;80;22748;-78
2022/09/18 00:08:24;;;;;;;28.87;12.85;;;;;;;24.38;75.40;98612.91;1792308;80;21185;-77
2022/09/18 00:11:30;;;;;;;23.80;13.28;;;;;;;24.36;75.62;98611.52;1791741;80;21767;-78
2022/09/18 00:14:35;;;;;;;25.85;14.35;;;;;;;24.36;75.27;98611.52;1791365;80;21184;-78
2022/09/18 00:17:41;;;;;;;37.35;15.60;;;;;;;24.39;75.35;98603.39;1792258;80;21748;-78
2022/09/18 00:20:46;;;;;;;21.80;12.37;;;;;;;24.35;75.35;98606.50;1792213;80;21442;-78
2022/09/18 00:23:52;;;;;;;28.23;16.15;;;;;;;24.39;75.44;98606.19;1792284;80;21217;-78
2022/09/18 00:26:58;;;;;;;34.95;15.25;;;;;;;24.40;75.44;98605.61;1791625;80;22135;-78
2022/09/18 00:30:05;;;;;;;29.87;13.03;;;;;;;24.37;75.33;98609.88;1792440;80;21475;-78
2022/09/18 00:33:10;;;;;;;27.62;13.90;;;;;;;24.59;74.58;98609.72;1792261;80;21149;-78
2022/09/18 00:36:22;;;;;;;26.95;11.53;;;;;;;24.70;73.99;98615.36;1790838;80;21173;-78
2022/09/18 00:39:28;;;;;;;20.10;10.13;;;;;;;24.85;73.33;98622.06;1792207;80;21482;-78
2022/09/18 00:42:33;;;;;;;29.72;10.70;;;;;;;24.72;73.52;98613.09;1791310;80;21734;-78
2022/09/18 00:45:40;;;;;;;24.92;10.23;;;;;;;24.72;73.48;98618.12;1790802;80;21189;-78
2022/09/18 00:49:14;;;;;;;19.77;9.40;;;;;;;24.87;72.87;98621.73;1792337;80;21169;-78
2022/09/18 00:52:20;;;;;;;25.75;10.53;;;;;;;24.90;72.61;98605.75;1792150;80;21173;-78
2022/09/18 00:55:30;;;;;;;27.85;10.05;;;;;;;24.69;73.19;98601.13;1790919;80;21459;-78
2022/09/18 00:58:37;;;;;;;19.67;7.92;;;;;;;24.59;73.60;98607.75;1790773;80;21215;-78
2022/09/18 01:01:43;;;;;;;26.95;8.45;;;;;;;24.68;73.19;98607.30;1792330;80;21142;-78
2022/09/18 01:04:48;;;;;;;20.57;7.45;;;;;;;24.81;72.78;98604.81;1791566;80;21189;-79
2022/09/18 01:08:08;;;;;;;15.55;7.05;;;;;;;24.30;74.69;98602.98;1792113;80;21189;-78
2022/09/18 01:11:41;;;;;;;19.50;8.68;;;;;;;24.27;74.77;98610.58;1792509;80;21292;-78
2022/09/18 01:15:14;;;;;;;26.75;8.35;;;;;;;24.18;75.25;98603.46;1791756;80;21150;-78
2022/09/18 01:18:38;;;;;;;22.37;8.05;;;;;;;24.23;75.14;98601.43;1790576;80;21209;-78
2022/09/18 01:22:11;;;;;;;18.62;7.90;;;;;;;24.06;75.71;98595.59;1792230;80;21173;-78
2022/09/18 01:25:26;;;;;;;24.15;7.20;;;;;;;24.17;75.44;98594.26;1779478;80;21795;-78
2022/09/18 01:28:47;;;;;;;23.83;7.25;;;;;;;24.09;75.76;98589.94;1791565;79;21204;-78
2022/09/18 01:32:14;;;;;;;24.02;7.75;;;;;;;23.91;76.21;98583.30;1784761;80;21733;-78
2022/09/18 01:35:38;;;;;;;24.70;7.78;;;;;;;23.98;76.13;98573.94;1783988;80;21234;-78
2022/09/18 01:38:49;;;;;;;20.82;7.05;;;;;;;24.07;75.64;98570.70;1784769;80;21741;-78
2022/09/18 01:41:55;;;;;;;21.77;7.30;;;;;;;24.11;75.46;98561.98;1784704;80;21186;-78
2022/09/18 01:45:01;;;;;;;23.60;6.12;;;;;;;23.98;75.61;98557.19;1784408;80;21202;-78
2022/09/18 01:48:14;;;;;;;19.45;7.15;;;;;;;23.99;75.93;98564.42;1784732;80;21206;-78
2022/09/18 01:51:25;;;;;;;35.92;7.92;;;;;;;23.92;76.13;98555.06;1783633;80;21847;-78
2022/09/18 01:54:34;;;;;;;24.60;7.17;;;;;;;24.16;74.96;98542.33;1769166;80;21127;-78
2022/09/18 01:57:48;;;;;;;24.65;7.42;;;;;;;24.30;74.59;98541.52;1784835;80;21210;-78
2022/09/18 02:01:05;;;;;;;26.80;7.35;;;;;;;24.18;75.22;98527.51;1784795;80;21155;-78
2022/09/18 02:04:13;;;;;;;23.52;6.90;;;;;;;24.28;74.82;98507.47;1785416;80;21175;-78
2022/09/18 02:07:31;;;;;;;27.85;7.22;;;;;;;24.27;74.78;98498.26;1784673;80;21741;-78
2022/09/18 02:10:40;;;;;;;26.82;6.85;;;;;;;24.16;75.16;98475.30;1784727;80;21190;-78
2022/09/18 02:13:58;;;;;;;18.25;6.25;;;;;;;24.10;75.22;98445.83;1783236;80;21190;-78
2022/09/18 02:17:16;;;;;;;21.37;6.20;;;;;;;23.99;75.75;98416.43;1784768;80;21493;-78
2022/09/18 02:20:28;;;;;;;34.08;9.38;;;;;;;24.26;74.80;98409.19;1784746;80;21190;-78
2022/09/18 02:23:36;;;;;;;24.87;7.15;;;;;;;24.27;74.54;98434.58;1784777;80;21171;-78
2022/09/18 02:26:44;;;;;;;27.58;7.03;;;;;;;24.19;74.77;98468.28;1783493;80;21270;-78
2022/09/18 02:29:50;;;;;;;31.23;8.05;;;;;;;24.33;74.25;98473.87;1784411;79;21253;-78
2022/09/18 02:33:01;;;;;;;21.00;7.37;;;;;;;24.37;74.04;98481.34;1772719;80;21165;-78
2022/09/18 02:36:15;;;;;;;19.67;7.65;;;;;;;24.55;73.34;98485.14;1772681;80;21170;-78
2022/09/18 02:40:07;;;;;;;26.82;6.92;;;;;;;24.04;75.30;98454.59;1792891;80;21169;-78
2022/09/18 02:43:33;;;;;;;29.05;7.35;;;;;;;23.96;75.92;98464.54;1791245;80;21228;-78
2022/09/18 02:47:18;;;;;;;20.27;7.30;;;;;;;23.91;76.35;98476.63;1791349;80;21193;-78
2022/09/18 02:50:44;;;;;;;19.02;8.33;;;;;;;24.01;76.29;98485.38;1792378;80;21764;-78
2022/09/18 02:53:59;;;;;;;25.75;6.72;;;;;;;24.11;75.78;98471.21;1792922;80;21713;-78
2022/09/18 02:57:19;;;;;;;21.77;8.48;;;;;;;24.09;75.94;98452.55;1791562;80;21217;-77
2022/09/18 03:00:24;;;;;;;27.87;9.00;;;;;;;23.93;76.64;98360.45;1792495;80;21751;-78
2022/09/18 03:03:37;;;;;;;30.95;8.38;;;;;;;23.95;76.84;98436.36;1792922;80;21174;-78
2022/09/18 03:06:45;;;;;;;27.73;8.40;;;;;;;24.12;76.45;98441.31;1792214;80;21499;-78
2022/09/18 03:09:53;;;;;;;30.85;9.13;;;;;;;24.19;76.12;98463.52;1792893;80;21161;-78
2022/09/18 03:13:00;;;;;;;30.97;8.58;;;;;;;24.14;76.31;98479.55;1792821;80;21204;-78
2022/09/18 03:16:07;;;;;;;23.75;8.93;;;;;;;23.61;78.08;98492.49;1792476;80;21174;-78
2022/09/18 03:19:14;;;;;;;31.02;8.65;;;;;;;23.41;79.87;98508.45;1791609;80;21233;-79
2022/09/18 03:22:21;;;;;;;38.63;9.00;;;;;;;23.54;79.45;98501.27;1791325;80;21232;-78
2022/09/18 03:25:27;;;;;;;32.20;8.78;;;;;;;23.52;79.54;98498.52;1792681;80;21744;-78
2022/09/18 03:28:33;;;;;;;27.70;9.55;;;;;;;23.56;79.49;98496.20;1792682;80;21142;-78
2022/09/18 03:31:40;;;;;;;27.67;9.10;;;;;;;23.53;79.54;98488.46;1792713;79;21205;-77
2022/09/18 03:34:47;;;;;;;17.57;7.37;;;;;;;23.59;79.34;98452.92;1792833;80;21170;-78
2022/09/18 03:37:48;;;;;;;25.55;9.35;;;;;;;23.61;79.20;98443.09;1791342;80;21169;-78
2022/09/18 03:40:54;;;;;;;30.15;8.95;;;;;;;24.08;76.98;98432.72;1792933;80;21197;-78
2022/09/18 03:44:02;;;;;;;20.37;8.78;;;;;;;24.02;77.35;98410.81;1792880;80;21169;-78
2022/09/18 03:47:08;;;;;;;31.95;10.50;;;;;;;23.78;78.03;98399.27;1792057;80;21507;-78
2022/09/18 03:50:15;;;;;;;27.45;10.18;;;;;;;23.71;78.43;98423.95;1792548;80;21209;-78
2022/09/18 03:53:20;;;;;;;26.12;9.98;;;;;;;23.65;78.82;98434.97;1792806;80;21169;-78
2022/09/18 03:56:33;;;;;;;27.13;9.53;;;;;;;23.73;78.33;98448.22;1790279;80;21225;-79
2022/09/18 03:59:40;;;;;;;27.42;10.10;;;;;;;23.92;77.98;98460.70;1789401;80;21173;-78
2022/09/18 04:03:04;;;;;;;25.32;9.98;;;;;;;24.15;77.26;98487.61;1792991;80;21220;-78
2022/09/18 04:06:12;;;;;;;29.37;9.48;;;;;;;24.22;76.91;98474.05;1790884;80;21165;-78
2022/09/18 04:09:36;;;;;;;29.92;11.03;;;;;;;24.42;75.98;98484.61;1792839;80;21200;-78
2022/09/18 04:12:41;;;;;;;29.90;9.80;;;;;;;24.23;76.86;98489.70;1792841;80;21169;-78
2022/09/18 04:15:49;;;;;;;27.98;10.85;;;;;;;24.33;76.66;98480.84;1791814;80;21201;-78
2022/09/18 04:18:56;;;;;;;25.02;8.78;;;;;;;24.05;77.55;98480.84;1792875;80;21166;-78
2022/09/18 04:22:02;;;;;;;28.95;10.30;;;;;;;23.93;77.78;98490.27;1792862;80;21204;-79
2022/09/18 04:25:09;;;;;;;28.23;10.55;;;;;;;23.88;78.95;98472.23;1792876;80;21213;-78
2022/09/18 04:28:15;;;;;;;29.55;10.05;;;;;;;23.98;78.61;98460.28;1791790;80;22514;-78
2022/09/18 04:31:22;;;;;;;27.25;9.75;;;;;;;24.32;77.30;98449.84;1791616;80;21177;-78
2022/09/18 04:34:29;;;;;;;24.55;9.33;;;;;;;24.41;76.77;98434.03;1792822;80;21170;-78
2022/09/18 04:37:34;;;;;;;20.65;9.83;;;;;;;24.58;76.34;98422.21;1792183;80;21847;-78
2022/09/18 04:40:41;;;;;;;21.60;8.35;;;;;;;24.80;75.67;98383.70;1792887;80;21221;-78
2022/09/18 04:43:49;;;;;;;23.35;9.30;;;;;;;24.40;77.15;98384.87;1792888;80;21170;-78
2022/09/18 04:46:54;;;;;;;29.23;9.58;;;;;;;24.73;75.61;98384.94;1791443;80;21199;-78
2022/09/18 04:49:59;;;;;;;22.95;8.10;;;;;;;24.76;75.04;98388.27;1792603;80;21202;-78
2022/09/18 04:53:07;;;;;;;25.20;9.38;;;;;;;24.83;74.97;98401.22;1770193;80;21221;-78
2022/09/18 04:56:12;;;;;;;21.42;8.28;;;;;;;24.96;74.16;98401.17;1792826;80;21179;-78
2022/09/18 04:59:20;;;;;;;26.33;8.85;;;;;;;24.88;74.42;98392.70;1792847;80;21296;-79
2022/09/18 05:02:25;;;;;;;20.10;8.08;;;;;;;24.80;75.07;98390.69;1791157;80;21312;-78
2022/09/18 05:05:31;;;;;;;26.37;8.43;;;;;;;24.71;75.58;98392.83;1792826;80;21177;-78
2022/09/18 05:08:39;;;;;;;25.75;9.35;;;;;;;24.56;75.73;98384.81;1791696;80;22725;-78
2022/09/18 05:11:48;;;;;;;30.85;8.73;;;;;;;24.60;76.02;98373.80;1792966;80;21224;-78
2022/09/18 05:14:49;;;;;;;22.93;8.05;;;;;;;25.08;74.16;98400.64;1791375;80;21177;-78
2022/09/18 05:17:55;;;;;;;21.37;8.53;;;;;;;25.45;72.95;98381.22;1792599;80;21158;-78
2022/09/18 05:21:03;;;;;;;18.10;7.75;;;;;;;25.38;73.70;98380.02;1792977;80;21760;-78
2022/09/18 05:24:09;;;;;;;22.58;7.87;;;;;;;25.71;73.10;98367.34;1772562;80;21779;-78
2022/09/18 05:27:16;;;;;;;27.85;8.30;;;;;;;25.58;73.95;98364.64;1792698;80;21743;-78
2022/09/18 05:30:24;;;;;;;26.97;7.62;;;;;;;25.64;73.49;98371.19;1791369;80;21176;-78
2022/09/18 05:33:29;;;;;;;20.27;7.25;;;;;;;25.97;72.28;98359.63;1792734;79;21258;-78
2022/09/18 05:36:36;;;;;;;23.12;8.35;;;;;;;26.30;70.63;98370.42;1792342;80;22446;-78
2022/09/18 05:39:42;;;;;;;17.02;6.83;;;;;;;26.14;71.62;98370.89;1790776;80;21177;-78
2022/09/18 05:42:55;;;;;;;18.82;7.40;;;;;;;26.32;72.33;98366.73;1790712;80;21185;-78
2022/09/18 05:46:01;;;;;;;22.25;7.67;;;;;;;26.59;71.29;98365.08;1792229;80;21237;-78
2022/09/18 05:49:10;;;;;;;17.42;6.92;;;;;;;26.54;71.10;98358.23;1790726;80;21248;-78
2022/09/18 05:52:16;;;;;;;21.95;7.85;;;;;;;26.61;70.29;98362.75;1790749;80;21170;-78
2022/09/18 05:55:21;;;;;;;19.80;7.10;;;;;;;26.65;69.70;98375.55;1790797;80;21177;-78
2022/09/18 05:58:29;;;;;;;17.02;7.47;;;;;;;26.53;70.10;98393.00;1791772;80;21173;-78
2022/09/18 06:01:35;;;;;;;19.42;7.97;;;;;;;26.75;69.54;98394.27;1792117;80;21803;-78
2022/09/18 06:04:44;;;;;;;19.05;7.90;;;;;;;26.92;69.73;98386.44;1792233;80;21741;-78
2022/09/18 06:07:44;;;;;;;19.40;7.62;;;;;;;26.93;70.32;98390.89;1792425;80;21177;-78
2022/09/18 06:10:53;;;;;;;22.35;8.65;;;;;;;27.19;69.70;98396.49;1791191;80;21220;-78
2022/09/18 06:13:59;;;;;;;20.48;7.95;;;;;;;27.41;69.43;98401.09;1792270;80;21170;-78
2022/09/18 06:17:06;;;;;;;19.82;7.65;;;;;;;27.90;67.98;98415.70;1791944;80;21261;-79
2022/09/18 06:20:14;;;;;;;19.27;7.22;;;;;;;27.98;66.55;98410.59;1790845;80;21216;-78
2022/09/18 06:23:20;;;;;;;12.25;6.78;;;;;;;28.18;65.46;98413.26;1792364;80;21170;-78
2022/09/18 06:26:28;;;;;;;13.70;6.20;;;;;;;28.38;65.32;98403.84;1792316;80;21166;-78
2022/09/18 06:29:35;;;;;;;12.13;6.17;;;;;;;28.37;64.44;98403.56;1791723;80;21200;-78
2022/09/18 06:32:42;;;;;;;18.77;6.55;;;;;;;28.41;64.19;98400.32;1791539;80;21811;-79
2022/09/18 06:35:50;;;;;;;10.63;5.08;;;;;;;28.33;64.66;98404.82;1792480;79;21252;-79
2022/09/18 06:38:58;;;;;;;20.37;5.85;;;;;;;28.50;63.65;98403.91;1792539;80;21208;-79
2022/09/18 06:42:04;;;;;;;20.65;5.67;;;;;;;28.69;62.98;98399.22;1792787;80;21209;-79
2022/09/18 06:45:14;;;;;;;13.58;5.42;;;;;;;28.60;62.86;98398.46;1771245;80;21216;-79
2022/09/18 06:48:19;;;;;;;15.20;5.80;;;;;;;28.75;62.66;98397.88;1791840;80;21217;-79
2022/09/18 06:51:26;;;;;;;14.55;4.87;;;;;;;28.74;62.19;98402.66;1791609;80;21764;-79
2022/09/18 06:54:34;;;;;;;15.18;5.00;;;;;;;28.98;61.52;98406.80;1792795;80;21177;-79
2022/09/18 06:57:36;;;;;;;14.83;4.40;;;;;;;28.92;61.37;98413.78;1792730;80;21174;-79
2022/09/18 07:00:42;;;;;;;8.30;4.00;;;;;;;28.98;60.28;98411.88;1791342;80;21209;-79
2022/09/18 07:03:50;;;;;;;10.43;3.62;;;;;;;29.07;60.24;98407.55;1791703;80;21252;-79
2022/09/18 07:06:58;;;;;;;8.78;3.45;;;;;;;29.22;58.86;98414.56;1792791;80;21272;-78
2022/09/18 07:10:06;;;;;;;11.43;4.37;;;;;;;29.21;58.34;98418.52;1791392;80;21201;-78
2022/09/18 07:13:12;;;;;;;11.85;4.28;;;;;;;29.10;58.53;98418.13;1792889;80;21158;-78
2022/09/18 07:16:18;;;;;;;12.58;3.60;;;;;;;29.31;57.52;98428.53;1792742;80;21755;-78
2022/09/18 07:19:26;;;;;;;8.90;4.03;;;;;;;29.19;58.18;98425.09;1791380;80;21185;-78
2022/09/18 07:22:33;;;;;;;12.70;3.90;;;;;;;29.37;57.89;98427.17;1792793;80;21708;-78
2022/09/18 07:25:41;;;;;;;10.80;3.50;;;;;;;29.44;56.88;98432.45;1792764;80;21204;-78
2022/09/18 07:28:47;;;;;;;16.65;3.80;;;;;;;29.59;55.92;98433.83;1791339;80;21185;-78
2022/09/18 07:31:55;;;;;;;12.75;4.03;;;;;;;29.59;56.87;98431.01;1792992;80;21169;-78
2022/09/18 07:35:00;;;;;;;12.37;3.52;;;;;;;29.71;55.37;98441.50;1792695;80;21177;-78
2022/09/18 07:38:08;;;;;;;16.70;3.92;;;;;;;29.88;56.11;98434.83;1791148;79;21221;-78
2022/09/18 07:41:17;;;;;;;16.40;3.90;;;;;;;29.75;56.04;98437.64;1790880;80;21780;-78
2022/09/18 07:44:24;;;;;;;14.93;3.25;;;;;;;29.81;55.35;98433.19;1792249;80;21466;-78
2022/09/18 07:47:31;;;;;;;11.05;3.37;;;;;;;29.91;54.79;98432.73;1792207;80;21209;-78
2022/09/18 07:50:38;;;;;;;12.20;3.62;;;;;;;29.99;55.65;98423.36;1791386;80;21927;-78
2022/09/18 07:53:44;;;;;;;11.33;3.45;;;;;;;30.18;55.68;98422.23;1792195;80;21173;-78
2022/09/18 07:57:01;;;;;;;10.82;3.65;;;;;;;30.11;53.98;98426.77;1790382;80;21173;-78
2022/09/18 08:00:09;;;;;;;16.55;3.42;;;;;;;30.10;54.85;98423.13;1790982;80;21185;-77
2022/09/18 08:03:18;;;;;;;9.33;3.20;;;;;;;30.22;55.04;98428.81;1792237;80;21197;-78
2022/09/18 08:06:27;;;;;;;13.08;3.35;;;;;;;30.32;54.18;98424.70;1767083;80;21177;-78
2022/09/18 08:09:35;;;;;;;8.53;2.90;;;;;;;30.27;53.74;98429.17;1792053;80;21277;-78
2022/09/18 08:12:53;;;;;;;11.00;3.08;;;;;;;30.07;53.01;98430.08;1790627;80;21244;-78
2022/09/18 08:16:12;;;;;;;8.35;2.67;;;;;;;30.16;53.43;98431.64;1790645;80;22026;-78
2022/09/18 08:19:28;;;;;;;10.90;3.47;;;;;;;30.16;51.99;98424.59;1791914;80;21775;-79
2022/09/18 08:22:37;;;;;;;;;;;;;;;30.27;53.19;98426.35;1793157;80;21343;-79
2022/09/18 08:25:45;;;;;;;10.70;2.80;;;;;;;30.37;51.33;98423.64;1792361;80;20225;-79
2022/09/18 08:28:50;;;;;;;11.80;2.67;;;;;;;30.58;49.74;98414.45;1792470;80;21216;-79
2022/09/18 08:31:55;;;;;;;11.68;3.02;;;;;;;30.68;49.04;98418.22;1790830;80;21217;-78
2022/09/18 08:35:02;;;;;;;5.67;2.42;;;;;;;30.63;48.71;98409.15;1791449;80;21185;-78
2022/09/18 08:38:10;;;;;;;6.15;2.52;;;;;;;30.63;49.61;98400.69;1792161;79;21192;-78
2022/09/18 08:41:35;;;;;;;8.68;2.60;;;;;;;30.72;48.53;98414.11;1744150;80;21720;-78
2022/09/18 08:44:46;;;;;;;8.55;2.70;;;;;;;31.10;48.04;98412.83;1792249;80;21192;-78
2022/09/18 08:48:00;;;;;;;8.13;2.25;;;;;;;30.90;47.05;98417.48;1792266;80;21218;-78
2022/09/18 08:51:19;;;;;;;6.58;2.62;;;;;;;30.94;46.64;98415.00;1791264;80;21185;-78
2022/09/18 08:54:37;;;;;;;14.23;4.12;;;;;;;31.07;48.05;98413.56;1792337;80;21212;-78
2022/09/18 08:57:53;;;;;;;8.20;2.10;;;;;;;31.14;48.04;98409.52;1733670;80;21157;-78
2022/09/18 09:01:05;;;;;;;10.55;2.27;;;;;;;31.33;46.61;98413.13;1791791;80;21174;-79
2022/09/18 09:04:33;;;;;;;13.55;2.55;;;;;;;31.43;46.55;98412.60;1792193;80;21724;-78
2022/09/18 09:08:10;;;;;;;16.70;2.72;;;;;;;31.26;47.01;98417.36;1790833;80;21459;-78
2022/09/18 09:11:41;;;;;;;13.62;2.83;;;;;;;31.39;47.57;98413.12;1791712;80;21205;-78
2022/09/18 09:15:01;;;;;;;10.53;2.50;;;;;;;31.35;46.96;98407.95;1780918;80;21186;-78
2022/09/18 09:18:11;;;;;;;14.55;2.72;;;;;;;31.47;46.54;98404.45;1786977;80;21744;-78
2022/09/18 09:21:33;;;;;;;13.45;2.42;;;;;;;31.53;46.64;98422.00;1790945;80;21827;-78
2022/09/18 09:25:08;;;;;;;14.30;2.70;;;;;;;31.54;45.59;98419.39;1754655;80;21182;-79
2022/09/18 09:28:33;;;;;;;9.00;2.25;;;;;;;31.55;46.59;98423.26;1790854;80;21208;-79
2022/09/18 09:31:51;;;;;;;7.80;2.15;;;;;;;31.59;44.87;98416.30;1789640;80;21217;-78
2022/09/18 09:35:11;;;;;;;7.25;2.22;;;;;;;31.52;44.78;98420.33;1792099;80;21205;-78
2022/09/18 09:39:16;;;;;;;7.67;2.00;;;;;;;31.46;44.39;98420.37;1792806;79;21829;-78
2022/09/18 09:42:51;;;;;;;7.85;1.80;;;;;;;31.34;44.90;98427.50;1791995;80;21177;-78
2022/09/18 09:45:58;;;;;;;5.12;1.90;;;;;;;31.64;43.77;98430.76;1784247;80;21177;-78
2022/09/18 09:49:27;;;;;;;7.83;1.87;;;;;;;31.73;43.68;98425.17;1792811;80;21217;-78
2022/09/18 09:52:33;;;;;;;11.18;2.35;;;;;;;31.74;43.53;98430.22;1791548;80;22623;-77
2022/09/18 09:55:49;;;;;;;10.60;1.87;;;;;;;31.97;43.77;98431.29;1793034;80;21228;-78
2022/09/18 09:59:35;;;;;;;6.08;1.70;;;;;;;31.95;43.45;98426.60;1792890;80;21185;-78
2022/09/18 10:02:52;;;;;;;5.87;1.77;;;;;;;32.09;42.29;98428.98;1791560;80;21233;-78
2022/09/18 10:06:13;;;;;;;11.33;2.27;;;;;;;32.25;42.93;98426.95;1792340;80;21737;-78
2022/09/18 10:09:59;;;;;;;13.85;2.47;;;;;;;32.24;42.42;98425.32;1793035;80;21166;-78
2022/09/18 10:13:08;;;;;;;6.12;1.90;;;;;;;32.25;42.39;98414.23;1791414;80;21201;-78
2022/09/18 10:16:40;;;;;;;4.45;1.62;;;;;;;32.17;41.58;98413.81;1791390;79;21245;-78
2022/09/18 10:19:47;;;;;;;;;;;;;;;32.22;41.49;98417.78;1795586;80;21177;-78
2022/09/18 10:22:53;;;;;;;5.92;1.60;;;;;;;32.07;41.01;98420.02;1791705;80;20232;-78
2022/09/18 10:26:05;;;;;;;9.10;1.85;;;;;;;32.09;41.13;98405.52;1791222;80;21177;-78
2022/09/18 10:29:11;;;;;;;14.87;2.25;;;;;;;32.02;40.46;98408.39;1792878;80;21158;-78
2022/09/18 10:32:19;;;;;;;3.80;1.62;;;;;;;31.90;40.59;98400.58;1792184;80;21252;-78
2022/09/18 10:35:48;;;;;;;12.28;2.65;;;;;;;32.22;40.67;98396.56;1792947;80;21165;-78
2022/09/18 10:38:48;;;;;;;9.53;1.80;;;;;;;32.03;40.77;98395.89;1793698;80;21212;-78
2022/09/18 10:41:57;;;;;;;4.62;1.85;;;;;;;31.97;40.93;98403.61;1791223;80;21161;-78
2022/09/18 10:45:13;;;;;;;6.90;1.40;;;;;;;31.87;41.47;98380.13;1791564;80;21201;-79
2022/09/18 10:48:23;;;;;;;6.67;1.45;;;;;;;31.83;40.67;98391.94;1792852;80;21182;-78
2022/09/18 10:51:17;;;;;;;15.20;2.20;;;;;;;31.80;40.56;98392.84;1791158;80;21773;-79
2022/09/18 10:54:21;;;;;;;9.65;1.75;;;;;;;31.78;40.79;98385.92;1751664;79;21160;-78
2022/09/18 10:57:31;;;;;;;9.20;1.90;;;;;;;31.91;40.91;98393.77;1765269;81;21193;-78
2022/09/18 11:00:26;;;;;;;6.97;1.82;;;;;;;31.83;40.45;98389.92;1766851;81;21716;-78
2022/09/18 11:03:42;;;;;;;7.40;1.65;;;;;;;31.78;40.89;98381.09;1766225;81;21189;-78
2022/09/18 11:06:51;;;;;;;8.55;1.65;;;;;;;31.89;41.79;98373.51;1767256;81;21201;-78
2022/09/18 11:09:59;;;;;;;11.03;1.77;;;;;;;32.06;40.71;98373.15;1767543;81;21182;-78
2022/09/18 11:13:07;;;;;;;14.38;2.08;;;;;;;31.96;40.67;98369.47;1765942;81;21900;-78
2022/09/18 11:16:12;;;;;;;11.25;2.37;;;;;;;31.88;40.99;98374.11;1765576;81;21265;-78
2022/09/18 11:19:31;;;;;;;10.23;2.37;;;;;;;31.93;41.16;98378.66;1765484;81;21185;-78
2022/09/18 11:22:47;;;;;;;10.05;2.27;;;;;;;31.95;40.97;98376.31;1766415;81;21218;-78
2022/09/18 11:25:55;;;;;;;11.20;2.30;;;;;;;31.92;41.53;98373.61;1767613;81;21190;-78
2022/09/18 11:29:14;;;;;;;4.33;1.50;;;;;;;31.92;41.17;98369.37;1767748;81;21201;-78
2022/09/18 11:32:34;;;;;;;9.40;2.22;;;;;;;31.85;40.94;98364.93;1767655;81;21229;-78
2022/09/18 11:35:40;;;;;;;;;;;;;;;31.94;40.92;98371.22;1768927;81;21221;-78
2022/09/18 11:38:50;;;;;;;5.47;1.90;;;;;;;31.89;40.98;98367.86;1766528;81;20675;-78
2022/09/18 11:41:50;;;;;;;8.13;1.77;;;;;;;31.98;40.43;98368.50;1770247;81;21260;-79
2022/09/18 11:44:57;;;;;;;7.65;1.75;;;;;;;31.99;40.09;98363.06;1808079;79;21715;-80
2022/09/18 11:48:28;;;;;;;11.65;1.70;;;;;;;32.01;40.40;98347.98;1768030;79;21177;-79
2022/09/18 11:51:55;;;;;;;7.33;1.47;;;;;;;32.11;40.36;98353.08;1809100;79;21826;-79
2022/09/18 11:55:25;;;;;;;4.37;1.57;;;;;;;32.03;39.73;98342.77;1810788;79;21189;-78
2022/09/18 11:58:40;;;;;;;6.37;1.45;;;;;;;31.91;40.13;98344.30;1810368;79;21197;-78
2022/09/18 12:02:01;;;;;;;11.38;1.72;;;;;;;31.80;40.45;98341.97;1810888;79;21176;-78
2022/09/18 12:05:24;;;;;;;11.00;1.80;;;;;;;31.78;40.05;98344.35;1811009;79;21236;-79
2022/09/18 12:08:52;;;;;;;5.17;1.70;;;;;;;31.75;40.19;98335.17;1808997;79;21263;-78
2022/09/18 12:12:18;;;;;;;5.70;1.87;;;;;;;31.68;40.58;98340.66;1809117;79;21739;-78
2022/09/18 12:15:31;;;;;;;5.70;1.40;;;;;;;31.65;40.46;98334.31;1803752;79;21157;-78
2022/09/18 12:18:47;;;;;;;8.00;1.80;;;;;;;31.85;39.69;98328.78;1803737;79;21165;-78
2022/09/18 12:22:30;;;;;;;7.67;1.70;;;;;;;31.85;39.88;98324.54;1797778;79;21216;-78
2022/09/18 12:26:10;;;;;;;10.23;1.90;;;;;;;31.71;39.60;98319.31;1791673;80;21219;-78
2022/09/18 12:29:41;;;;;;;7.50;2.72;;;;;;;31.71;39.86;98313.09;1792287;80;22332;-79
2022/09/18 12:33:23;;;;;;;6.10;1.57;;;;;;;31.69;39.46;98323.92;1792300;80;21172;-78
2022/09/18 12:36:50;;;;;;;9.48;2.37;;;;;;;31.55;39.70;98308.02;1791556;80;21247;-78
2022/09/18 12:40:18;;;;;;;6.45;1.85;;;;;;;31.50;40.05;98308.30;1791676;80;21192;-78
2022/09/18 12:43:28;;;;;;;;;;;;;;;31.73;40.13;98307.07;1788139;80;21212;-78
2022/09/18 12:46:38;;;;;;;11.60;1.98;;;;;;;31.69;40.21;98302.73;1786384;80;20423;-78
2022/09/18 12:50:02;;;;;;;7.45;2.22;;;;;;;31.61;40.48;98303.73;1786649;80;21204;-78
2022/09/18 12:53:49;;;;;;;10.93;1.80;;;;;;;31.69;39.98;98294.25;1786621;80;21184;-78
2022/09/18 12:57:09;;;;;;;12.98;1.75;;;;;;;31.65;40.02;98297.58;1719401;80;21335;-78
2022/09/18 13:00:21;;;;;;;14.27;2.10;;;;;;;31.65;39.26;98294.75;1787369;80;21243;-78
2022/09/18 13:03:40;;;;;;;12.90;1.70;;;;;;;31.62;39.51;98296.06;1787022;80;21169;-78
2022/09/18 13:06:59;;;;;;;11.33;2.10;;;;;;;31.66;39.33;98306.88;1787065;80;21227;-78
2022/09/18 13:10:12;;;;;;;12.10;1.60;;;;;;;31.50;40.00;98295.58;1785596;80;21204;-78
2022/09/18 13:13:25;;;;;;;13.38;1.57;;;;;;;31.51;39.11;98294.39;1786991;80;21169;-78
2022/09/18 13:16:51;;;;;;;8.43;1.55;;;;;;;31.33;39.24;98298.74;1787122;80;21882;-78
2022/09/18 13:20:08;;;;;;;7.78;1.50;;;;;;;31.29;39.06;98288.19;1785728;80;21165;-78
2022/09/18 13:23:08;;;;;;;11.18;1.60;;;;;;;31.22;39.16;98296.42;1787338;80;21177;-79
2022/09/18 13:26:17;;;;;;;12.90;1.90;;;;;;;31.10;39.34;98292.27;1785688;80;21278;-78
2022/09/18 13:30:01;;;;;;;10.03;1.62;;;;;;;31.10;39.52;98288.04;1787088;80;21176;-78
2022/09/18 13:33:07;;;;;;;10.78;1.72;;;;;;;31.03;39.56;98292.06;1786974;80;21157;-78
2022/09/18 13:36:13;;;;;;;5.65;1.37;;;;;;;30.91;40.05;98289.28;1785557;80;21168;-78
2022/09/18 13:39:31;;;;;;;7.50;1.45;;;;;;;31.02;39.87;98287.01;1786491;80;21267;-78
2022/09/18 13:42:46;;;;;;;5.87;1.30;;;;;;;30.93;39.77;98284.94;1786697;80;21716;-78
2022/09/18 13:45:52;;;;;;;8.23;1.40;;;;;;;30.94;40.19;98292.81;1785676;80;21172;-78
2022/09/18 13:49:00;;;;;;;8.43;1.45;;;;;;;30.87;39.95;98282.16;1786996;80;21212;-78
2022/09/18 13:52:34;;;;;;;6.45;1.60;;;;;;;30.83;40.24;98284.64;1786888;80;21168;-78
2022/09/18 13:55:46;;;;;;;5.87;1.40;;;;;;;30.78;40.14;98280.89;1785620;80;21200;-78
2022/09/18 13:59:01;;;;;;;6.47;1.60;;;;;;;30.52;40.80;98287.53;1786992;80;21154;-78
2022/09/18 14:02:08;;;;;;;8.33;1.55;;;;;;;30.52;41.36;98273.42;1785462;80;21161;-78
2022/09/18 14:05:45;;;;;;;5.17;1.55;;;;;;;30.58;41.24;98285.27;1786154;80;21177;-79
2022/09/18 14:08:53;;;;;;;5.17;1.92;;;;;;;30.59;41.18;98282.11;1786977;80;21187;-78
2022/09/18 14:12:00;;;;;;;9.00;2.08;;;;;;;30.60;41.39;98289.39;1786722;80;21180;-78
2022/09/18 14:15:23;;;;;;;10.45;2.12;;;;;;;30.41;41.23;98295.67;1786208;80;21208;-78
2022/09/18 14:18:39;;;;;;;12.88;1.72;;;;;;;30.41;40.84;98294.86;1786965;80;21157;-78
2022/09/18 14:21:49;;;;;;;5.70;1.27;;;;;;;30.35;40.10;98297.67;1786962;80;21189;-78
2022/09/18 14:25:03;;;;;;;8.30;2.10;;;;;;;30.35;39.11;98294.85;1796603;79;21221;-79
2022/09/18 14:28:02;;;;;;;7.83;2.10;;;;;;;30.24;38.78;98302.39;1802219;79;21165;-78
2022/09/18 14:31:39;;;;;;;9.30;1.95;;;;;;;30.11;39.63;98297.91;1802274;79;21177;-78
2022/09/18 14:34:47;;;;;;;9.98;1.60;;;;;;;30.01;39.33;98299.80;1802156;79;21273;-78
2022/09/18 14:37:53;;;;;;;5.65;1.55;;;;;;;29.82;40.19;98296.17;1801846;79;21165;-78
2022/09/18 14:41:20;;;;;;;7.15;2.25;;;;;;;29.80;40.93;98301.35;1801497;79;21231;-79
2022/09/18 14:44:23;;;;;;;5.67;1.50;;;;;;;29.12;42.77;98294.75;1806075;79;21236;-78
2022/09/18 14:47:30;;;;;;;8.83;1.62;;;;;;;29.12;43.51;98301.79;1811536;79;21173;-78
2022/09/18 14:50:43;;;;;;;6.95;2.20;;;;;;;28.94;44.32;98305.95;1781893;79;21487;-78
2022/09/18 14:53:50;;;;;;;5.50;1.98;;;;;;;29.16;44.44;98308.96;1797292;79;21180;-78
2022/09/18 14:56:56;;;;;;;8.20;1.60;;;;;;;29.00;45.42;98303.17;1777815;80;21224;-78
2022/09/18 15:00:06;;;;;;;4.58;1.52;;;;;;;29.13;45.83;98305.45;1779460;80;21196;-78